Grand Forks, ND (58201)

6:40 PM CDT on July 29, 2015 (GMT -0500)
KNDGRAND8 | | Change Station
CLOSE
Current Station
Personal Weather Station
Location: Grand Forks, ND
Elevation: 830 ft
Nearby Weather Stations
Active Advisory: High Wind Advisory Active Notice: Public Information Statement

Elev 830 ft 47.94 °N, 97.06 °W | Updated 11 minutes ago

Partly Cloudy
Partly Cloudy
79.6 °F
Feels Like 80 °F
N
2.3
Wind Variable Wind from WNW
Gusts 2.3 mph

Today
High -- | Low -- °F
--% Chance of Precip.
Yesterday
High -- | Low -- °F
Precip. -- in
6:00 AM 9:07 PM
Waxing Gibbous, 97% visible
Pressure 29.83 in
Visibility 10.0 miles
Clouds Few 7000 ft
Scattered Clouds 25000 ft
Heat Index 80 °F
Dew Point 55 °F
Humidity 43%
Rainfall 0.00 in
Snow Depth Not available.
UV 3 out of 12
Pollen 8.20 out of 12
Air Quality Not available.
Flu Activity Not available.
METAR KGFK 292253Z 29023G35KT 10SM FEW070 SCT250 27/12 A2984 RMK AO2 PK WND 30035/2250 SLP102 T02720117

More Conditions Fewer Conditions

Pressure 29.83 in
Visibility 10.0 miles
Clouds Few 7000 ft
Scattered Clouds 25000 ft
Heat Index 80 °F
Dew Point 55 °F
Humidity 43%
Rainfall 0.00 in
Snow Depth Not available.
UV 3 out of 12
Pollen 8.20 out of 12
Air Quality Not available.
Flu Activity Not available.
METAR KGFK 292253Z 29023G35KT 10SM FEW070 SCT250 27/12 A2984 RMK AO2 PK WND 30035/2250 SLP102 T02720117

More Conditions Fewer Conditions

10-Day Weather Forecast

×

Almanac

Astronomy

Jul. 29, 2015 Rise Set
Actual Time
Civil Twilight
Nautical Twilight
Astronomical Twilight
Moon
Length of Visible Light
Length of Day
Tomorrow will be .
, % of the Moon is Illuminated

Today's Extremes

State Highs State Lows

Community

WunderPhotos

Upload Photos

1,842,196 photos uploaded!

WunderBlogs® & News

Nearby

Air Quality

  Air Quality AQ Index Pollutant
Not available.

Snow Depth

Station Depth Elevation

Earthquake Activity

City Distance Mag. Time & Date
Minimum magnitude displayed is 2.5.

Coastal Water Temperatures

Place Temperature

Stations

Nearby Weather Stations

Station Location Temp. Windchill Dew Point Humidity Wind Precip. Elev Updated Type
                   
High Wind Advisory
Statement as of 6:39 PM CDT on July 29, 2015

... Wind Advisory is cancelled...

The National Weather Service in Grand Forks has cancelled the
Wind Advisory.

Wind speeds have dropped below advisory criteria and will continue
to diminish through the evening.